createdAt,value
2023-10-04T00:01:03.291Z,11.35
2023-10-04T00:06:06.040Z,7.07
2023-10-04T00:11:15.644Z,9.88
2023-10-04T00:16:19.526Z,11.30
2023-10-04T00:21:23.203Z,7.75
2023-10-04T00:26:26.290Z,8.57
2023-10-04T00:31:30.056Z,7.32
2023-10-04T00:36:33.199Z,8.90
2023-10-04T00:41:36.728Z,8.85
2023-10-04T00:46:43.485Z,10.15
2023-10-04T00:51:47.714Z,7.88
2023-10-04T00:56:53.088Z,11.30
2023-10-04T01:01:56.029Z,12.68
2023-10-04T01:23:06.082Z,8.68
2023-10-04T01:28:14.107Z,10.27
2023-10-04T01:33:17.534Z,12.27
2023-10-04T01:38:33.704Z,9.52
2023-10-04T01:43:36.736Z,13.10
2023-10-04T01:48:41.482Z,8.82
2023-10-04T01:53:44.261Z,10.07
2023-10-04T01:58:50.132Z,13.43
2023-10-04T02:03:55.211Z,8.60
2023-10-04T02:08:58.577Z,10.30
2023-10-04T02:14:01.544Z,14.85
2023-10-04T02:19:05.021Z,13.65
2023-10-04T02:24:11.250Z,12.95
2023-10-04T02:29:14.425Z,11.82
2023-10-04T02:34:20.661Z,10.73
2023-10-04T02:39:25.700Z,14.70
2023-10-04T02:44:28.800Z,14.55
2023-10-04T02:49:31.670Z,13.48
2023-10-04T02:54:35.102Z,12.18
2023-10-04T02:59:37.916Z,12.07
2023-10-04T03:04:42.677Z,7.75
2023-10-04T03:09:45.458Z,9.95
2023-10-04T03:14:48.309Z,11.20
2023-10-04T03:19:53.117Z,8.82
2023-10-04T03:24:56.016Z,10.38
2023-10-04T03:30:00.129Z,9.10
2023-10-04T03:35:09.030Z,11.10
2023-10-04T03:40:16.386Z,9.75
2023-10-04T03:45:21.995Z,8.60
2023-10-04T03:50:25.804Z,10.27
2023-10-04T03:55:28.619Z,6.97
2023-10-04T04:00:33.807Z,11.50
2023-10-04T04:05:43.116Z,12.13
2023-10-04T04:10:47.672Z,12.15
2023-10-04T04:15:50.543Z,8.95
2023-10-04T04:20:55.646Z,8.57
2023-10-04T04:26:08.104Z,10.18
2023-10-04T04:31:22.120Z,9.18
2023-10-04T04:36:29.315Z,9.23
2023-10-04T04:41:39.895Z,15.23
2023-10-04T04:51:48.738Z,10.50
2023-10-04T04:56:51.629Z,10.32
2023-10-04T05:01:57.280Z,14.85
2023-10-04T05:07:00.437Z,12.00
2023-10-04T05:12:03.182Z,10.45
2023-10-04T05:17:05.928Z,12.40
2023-10-04T05:22:08.840Z,13.43
2023-10-04T05:27:11.727Z,11.93
2023-10-04T05:32:14.626Z,11.52
2023-10-04T05:37:17.425Z,14.48
2023-10-04T05:42:20.122Z,12.25
2023-10-04T05:47:22.788Z,13.60
2023-10-04T05:52:25.616Z,15.43
2023-10-04T05:57:30.014Z,13.38
2023-10-04T06:02:33.631Z,14.27
2023-10-04T06:07:36.774Z,13.20
2023-10-04T06:12:41.210Z,12.52
2023-10-04T06:17:47.472Z,17.92
2023-10-04T06:22:51.147Z,15.40
2023-10-04T06:27:55.649Z,13.90
2023-10-04T06:33:01.240Z,12.77
2023-10-04T06:38:08.013Z,11.98
2023-10-04T06:43:11.513Z,13.70
2023-10-04T06:48:15.702Z,15.23
2023-10-04T06:53:18.784Z,18.17
2023-10-04T06:58:22.785Z,12.65
2023-10-04T07:03:28.012Z,13.38
2023-10-04T07:08:36.946Z,12.13
2023-10-04T07:13:40.827Z,9.77
2023-10-04T07:18:43.948Z,11.30
2023-10-04T07:23:47.652Z,16.92
2023-10-04T07:28:50.742Z,14.30
2023-10-04T07:33:53.645Z,18.23
2023-10-04T07:38:56.666Z,13.52
2023-10-04T07:43:59.496Z,13.15
2023-10-04T07:49:03.203Z,13.23
2023-10-04T07:59:11.865Z,14.07
2023-10-04T08:04:14.818Z,15.35
2023-10-04T08:09:17.881Z,13.38
2023-10-04T08:14:22.640Z,20.52
2023-10-04T08:19:25.474Z,19.00
2023-10-04T08:24:28.513Z,17.90
2023-10-04T08:29:35.572Z,24.55
2023-10-04T08:34:38.767Z,14.25
2023-10-04T08:39:42.036Z,17.55
2023-10-04T08:44:45.049Z,10.73
2023-10-04T08:49:56.861Z,14.60
2023-10-04T08:55:09.433Z,11.50
2023-10-04T09:00:28.972Z,13.38
2023-10-04T09:05:34.878Z,15.27
2023-10-04T09:10:40.654Z,9.10
2023-10-04T09:15:43.553Z,11.85
2023-10-04T09:20:46.977Z,12.77
2023-10-04T09:25:54.555Z,10.68
2023-10-04T09:31:10.261Z,10.88
2023-10-04T09:36:36.383Z,8.70
2023-10-04T09:41:49.399Z,11.50
2023-10-04T09:46:58.583Z,9.35
2023-10-04T09:52:02.722Z,11.95
2023-10-04T09:57:11.438Z,13.32
2023-10-04T10:02:17.067Z,7.93
2023-10-04T10:07:26.925Z,9.00
2023-10-04T10:12:33.543Z,9.35
2023-10-04T10:17:37.184Z,14.27
2023-10-04T10:23:01.835Z,8.93
2023-10-04T10:28:06.173Z,13.45
2023-10-04T10:33:08.885Z,8.90
2023-10-04T10:38:30.691Z,9.20
2023-10-04T10:48:39.950Z,11.88
2023-10-04T10:53:42.795Z,11.55
2023-10-04T10:58:50.173Z,14.07
2023-10-04T11:03:52.879Z,9.73
2023-10-04T11:08:57.208Z,10.35
2023-10-04T11:14:00.837Z,13.43
2023-10-04T11:19:05.111Z,11.07
2023-10-04T11:24:11.164Z,11.10
2023-10-04T11:29:14.611Z,17.38
2023-10-04T11:34:18.626Z,10.23
2023-10-04T11:39:24.214Z,11.77
2023-10-04T11:44:27.177Z,12.68
2023-10-04T11:49:33.852Z,12.35
2023-10-04T11:54:45.806Z,13.05
2023-10-04T11:59:48.511Z,9.45
2023-10-04T12:04:51.525Z,10.60
2023-10-04T12:09:54.333Z,11.73
2023-10-04T12:14:57.176Z,8.80
2023-10-04T12:20:00.185Z,8.13
2023-10-04T12:25:03.109Z,10.35
2023-10-04T12:35:12.312Z,11.73
2023-10-04T12:40:25.292Z,8.30
2023-10-04T12:45:33.318Z,11.48
2023-10-04T12:50:36.767Z,15.82
2023-10-04T12:55:39.625Z,7.50
2023-10-04T13:00:45.656Z,12.02
2023-10-04T13:05:48.704Z,10.35
2023-10-04T13:10:51.451Z,11.68
2023-10-04T13:15:54.740Z,11.85
2023-10-04T13:20:57.597Z,10.82
2023-10-04T13:26:00.389Z,10.38
2023-10-04T13:31:04.466Z,13.85
2023-10-04T13:36:07.331Z,19.52
2023-10-04T13:41:16.520Z,19.25
2023-10-04T13:46:19.694Z,21.80
2023-10-04T13:51:25.936Z,16.95
2023-10-04T13:56:28.939Z,15.25
2023-10-04T14:01:31.945Z,13.02
2023-10-04T14:06:34.910Z,20.85
2023-10-04T14:11:37.667Z,21.05
2023-10-04T14:16:43.621Z,23.25
2023-10-04T14:21:46.545Z,35.03
2023-10-04T14:26:53.582Z,32.28
2023-10-04T14:31:56.488Z,28.35
2023-10-04T14:36:59.397Z,26.00
2023-10-04T14:42:06.395Z,27.10
2023-10-04T14:47:09.629Z,22.05
2023-10-04T14:52:13.614Z,18.73
2023-10-04T14:57:16.485Z,20.23
2023-10-04T15:02:20.028Z,23.75
2023-10-04T15:07:23.087Z,15.82
2023-10-04T15:12:25.898Z,25.02
2023-10-04T15:17:28.725Z,19.60
2023-10-04T15:22:37.497Z,28.35
2023-10-04T15:28:07.460Z,28.92
2023-10-04T15:33:10.505Z,24.77
2023-10-04T15:38:13.499Z,27.52
2023-10-04T15:43:18.775Z,23.52
2023-10-04T15:48:21.696Z,26.52
2023-10-04T15:53:25.930Z,25.65
2023-10-04T15:58:28.976Z,29.65
2023-10-04T16:03:32.694Z,29.67
2023-10-04T16:08:36.521Z,28.85
2023-10-04T16:13:39.329Z,31.63
2023-10-04T16:18:42.507Z,39.33
2023-10-04T16:23:45.508Z,25.77
2023-10-04T16:28:48.667Z,34.83
2023-10-04T16:33:51.749Z,36.80
2023-10-04T16:38:54.649Z,44.88
2023-10-04T16:43:57.342Z,39.03
2023-10-04T16:49:00.301Z,45.97
2023-10-04T16:54:04.437Z,39.63
2023-10-04T16:59:07.810Z,44.47
2023-10-04T17:04:11.313Z,34.40
2023-10-04T17:09:14.251Z,36.17
2023-10-04T17:14:17.129Z,33.85
2023-10-04T17:19:20.611Z,30.02
2023-10-04T17:24:23.529Z,26.58
2023-10-04T17:29:26.540Z,27.58
2023-10-04T17:34:29.441Z,25.60
2023-10-04T17:39:32.724Z,23.10
2023-10-04T17:44:35.604Z,32.40
2023-10-04T17:49:38.610Z,25.98
2023-10-04T17:54:41.672Z,27.05
2023-10-04T17:59:44.682Z,35.38
2023-10-04T18:04:47.754Z,37.83
2023-10-04T18:09:50.606Z,36.45
2023-10-04T18:14:53.659Z,43.20
2023-10-04T18:19:57.109Z,48.75
2023-10-04T18:24:59.964Z,37.20
2023-10-04T18:30:02.912Z,58.08
2023-10-04T18:35:06.830Z,47.55
2023-10-04T18:40:11.211Z,39.85
2023-10-04T18:45:14.381Z,30.42
2023-10-04T18:50:18.910Z,22.35
2023-10-04T18:55:21.897Z,33.50
2023-10-04T19:00:26.567Z,29.23
2023-10-04T19:05:30.035Z,23.23
2023-10-04T19:10:32.698Z,26.23
2023-10-04T19:15:35.742Z,21.77
2023-10-04T19:20:38.898Z,26.40
2023-10-04T19:25:41.710Z,25.88
2023-10-04T19:30:44.988Z,18.00
2023-10-04T19:35:47.873Z,19.85
2023-10-04T19:40:52.336Z,20.98
2023-10-04T19:45:55.817Z,20.55
2023-10-04T19:50:58.767Z,17.45
2023-10-04T19:56:01.631Z,21.42
2023-10-04T20:01:04.748Z,16.90
2023-10-04T20:06:11.079Z,21.88
2023-10-04T20:11:14.020Z,22.08
2023-10-04T20:16:18.106Z,17.10
2023-10-04T20:21:20.964Z,21.73
2023-10-04T20:26:24.030Z,16.10
2023-10-04T20:31:26.950Z,15.93
2023-10-04T20:36:29.888Z,18.42
2023-10-04T20:41:33.441Z,16.70
2023-10-04T20:46:36.546Z,21.08
2023-10-04T20:51:39.895Z,20.10
2023-10-04T20:56:43.029Z,12.70
2023-10-04T21:01:45.858Z,14.95
2023-10-04T21:06:48.742Z,12.38
2023-10-04T21:11:51.969Z,15.18
2023-10-04T21:16:55.032Z,10.82
2023-10-04T21:21:58.192Z,16.45
2023-10-04T21:27:02.853Z,14.10
2023-10-04T21:32:06.036Z,16.15
2023-10-04T21:37:11.683Z,16.90
2023-10-04T21:42:16.942Z,11.90
2023-10-04T21:47:28.448Z,13.55
2023-10-04T21:52:33.074Z,13.18
2023-10-04T21:57:35.812Z,14.48
2023-10-04T22:02:38.636Z,11.57
2023-10-04T22:07:43.862Z,13.85
2023-10-04T22:12:47.270Z,14.65
2023-10-04T22:17:51.198Z,17.48
2023-10-04T22:22:54.234Z,16.48
2023-10-04T22:27:56.898Z,11.93
2023-10-04T22:32:59.741Z,12.65
2023-10-04T22:38:03.047Z,13.27
2023-10-04T22:43:09.184Z,10.57
2023-10-04T22:48:11.995Z,13.82
2023-10-04T22:53:15.678Z,15.48
2023-10-04T22:58:18.511Z,14.40
2023-10-04T23:08:46.701Z,17.73
2023-10-04T23:13:52.476Z,10.50
2023-10-04T23:18:55.357Z,13.77
2023-10-04T23:24:10.390Z,13.32
2023-10-04T23:29:14.844Z,15.43
2023-10-04T23:34:19.065Z,17.13
2023-10-04T23:39:30.858Z,14.13
2023-10-04T23:44:33.885Z,13.55
2023-10-04T23:49:40.157Z,13.82
2023-10-04T23:54:46.569Z,13.27
2023-10-04T23:59:52.448Z,14.60
